createdAt,value
2018-09-23T00:02:01.169Z,40.83
2018-09-23T00:04:32.544Z,50.10
2018-09-23T00:07:04.328Z,50.80
2018-09-23T00:09:35.603Z,64.57
2018-09-23T00:12:07.038Z,59.73
2018-09-23T00:14:38.603Z,51.57
2018-09-23T00:17:10.149Z,53.77
2018-09-23T00:19:41.617Z,55.03
2018-09-23T00:22:13.142Z,69.50
2018-09-23T00:24:44.377Z,49.13
2018-09-23T00:27:15.868Z,47.63
2018-09-23T00:29:51.843Z,57.63
2018-09-23T00:32:25.246Z,60.33
2018-09-23T00:34:56.529Z,52.60
2018-09-23T00:37:28.237Z,55.53
2018-09-23T00:39:59.681Z,56.37
2018-09-23T00:42:31.226Z,53.63
2018-09-23T00:45:05.910Z,44.63
2018-09-23T00:47:37.609Z,61.50
2018-09-23T00:50:09.605Z,43.63
2018-09-23T00:52:41.225Z,41.57
2018-09-23T00:55:12.548Z,65.77
2018-09-23T00:57:44.425Z,48.07
2018-09-23T01:00:15.630Z,57.30
2018-09-23T01:02:48.606Z,48.23
2018-09-23T01:05:19.921Z,57.83
2018-09-23T01:07:52.485Z,62.27
2018-09-23T01:10:23.887Z,56.37
2018-09-23T01:12:55.637Z,58.40
2018-09-23T01:15:26.966Z,44.67
2018-09-23T01:17:58.702Z,54.40
2018-09-23T01:20:30.205Z,66.00
2018-09-23T01:23:04.726Z,59.47
2018-09-23T01:25:36.237Z,58.37
2018-09-23T01:28:09.373Z,54.40
2018-09-23T01:30:41.453Z,51.43
2018-09-23T01:33:13.170Z,46.07
2018-09-23T01:35:44.698Z,56.43
2018-09-23T01:38:16.339Z,64.00
2018-09-23T01:40:47.646Z,70.03
2018-09-23T01:43:19.396Z,52.47
2018-09-23T01:45:50.705Z,64.47
2018-09-23T01:48:22.857Z,58.70
2018-09-23T01:50:54.209Z,65.50
2018-09-23T01:53:25.660Z,44.67
2018-09-23T01:55:57.005Z,66.23
2018-09-23T01:58:28.675Z,55.83
2018-09-23T02:01:00.093Z,48.63
2018-09-23T02:03:32.241Z,51.40
2018-09-23T02:06:03.675Z,49.33
2018-09-23T02:08:35.275Z,64.17
2018-09-23T02:11:06.532Z,58.17
2018-09-23T02:13:37.924Z,47.93
2018-09-23T02:16:09.271Z,52.97
2018-09-23T02:18:40.729Z,49.50
2018-09-23T02:21:12.059Z,56.20
2018-09-23T02:23:43.549Z,51.10
2018-09-23T02:26:15.015Z,53.80
2018-09-23T02:28:46.868Z,44.37
2018-09-23T02:31:18.135Z,48.97
2018-09-23T02:33:50.285Z,63.83
2018-09-23T02:36:21.849Z,47.93
2018-09-23T02:38:53.660Z,65.00
2018-09-23T02:41:24.926Z,39.77
2018-09-23T02:43:56.501Z,55.20
2018-09-23T02:46:27.694Z,56.83
2018-09-23T02:48:59.694Z,65.53
2018-09-23T02:51:31.214Z,61.50
2018-09-23T02:54:02.533Z,70.37
2018-09-23T02:56:33.913Z,62.43
2018-09-23T02:59:05.548Z,51.53
2018-09-23T03:01:37.518Z,65.00
2018-09-23T03:04:10.458Z,61.70
2018-09-23T03:06:42.034Z,40.60
2018-09-23T03:09:13.695Z,68.80
2018-09-23T03:11:45.406Z,43.30
2018-09-23T03:14:17.319Z,43.00
2018-09-23T03:16:48.901Z,49.07
2018-09-23T03:19:20.951Z,62.03
2018-09-23T03:21:53.502Z,46.13
2018-09-23T03:24:25.234Z,57.13
2018-09-23T03:26:57.505Z,48.93
2018-09-23T03:29:29.229Z,41.80
2018-09-23T03:32:00.678Z,48.40
2018-09-23T03:34:32.833Z,55.30
2018-09-23T03:37:05.941Z,46.00
2018-09-23T03:39:37.393Z,59.40
2018-09-23T03:42:08.536Z,53.00
2018-09-23T03:44:40.085Z,47.37
2018-09-23T03:47:11.521Z,64.93
2018-09-23T03:49:43.311Z,40.30
2018-09-23T03:52:14.647Z,62.40
2018-09-23T03:54:46.276Z,52.70
2018-09-23T03:57:17.874Z,51.90
2018-09-23T03:59:49.689Z,45.83
2018-09-23T04:02:21.006Z,43.73
2018-09-23T04:04:54.560Z,59.87
2018-09-23T04:07:26.335Z,63.23
2018-09-23T04:09:58.112Z,60.97
2018-09-23T04:12:29.246Z,63.03
2018-09-23T04:15:04.990Z,69.70
2018-09-23T04:17:36.534Z,55.93
2018-09-23T04:20:09.565Z,71.10
2018-09-23T04:22:48.030Z,50.50
2018-09-23T04:25:20.649Z,42.00
2018-09-23T04:27:52.293Z,45.53
2018-09-23T04:30:23.710Z,49.57
2018-09-23T04:32:55.143Z,34.30
2018-09-23T04:35:26.686Z,32.27
2018-09-23T04:37:58.034Z,48.50
2018-09-23T04:40:29.902Z,41.47
2018-09-23T04:43:01.111Z,48.37
2018-09-23T04:45:32.785Z,43.47
2018-09-23T04:48:04.533Z,37.23
2018-09-23T04:50:36.281Z,32.03
2018-09-23T04:53:07.770Z,35.87
2018-09-23T04:55:39.537Z,39.10
2018-09-23T04:58:11.130Z,33.37
2018-09-23T05:00:42.930Z,40.50
2018-09-23T05:03:15.838Z,39.10
2018-09-23T05:05:49.060Z,39.50
2018-09-23T05:08:20.309Z,39.13
2018-09-23T05:10:52.030Z,47.60
2018-09-23T05:13:23.649Z,36.73
2018-09-23T05:15:56.126Z,39.18
2018-09-23T05:18:27.390Z,30.07
2018-09-23T05:20:58.784Z,38.35
2018-09-23T05:23:30.228Z,43.00
2018-09-23T05:26:02.363Z,44.35
2018-09-23T05:28:33.882Z,37.75
2018-09-23T05:31:08.572Z,39.08
2018-09-23T05:33:39.862Z,35.65
2018-09-23T05:36:11.676Z,36.20
2018-09-23T05:38:42.816Z,33.78
2018-09-23T05:41:14.670Z,27.65
2018-09-23T05:43:46.197Z,46.02
2018-09-23T05:46:17.761Z,36.20
2018-09-23T05:48:49.274Z,48.33
2018-09-23T05:51:20.681Z,38.23
2018-09-23T05:53:51.989Z,40.33
2018-09-23T05:56:23.779Z,33.83
2018-09-23T05:58:55.144Z,31.70
2018-09-23T06:01:27.006Z,35.13
2018-09-23T06:03:58.545Z,23.75
2018-09-23T06:06:31.127Z,30.72
2018-09-23T06:09:02.841Z,31.55
2018-09-23T06:11:34.491Z,22.07
2018-09-23T06:14:05.880Z,21.73
2018-09-23T06:16:37.926Z,30.32
2018-09-23T06:19:09.574Z,27.80
2018-09-23T06:21:41.184Z,41.98
2018-09-23T06:24:12.530Z,30.85
2018-09-23T06:26:45.797Z,40.55
2018-09-23T06:29:17.092Z,23.77
2018-09-23T06:31:49.036Z,30.40
2018-09-23T06:34:20.570Z,31.05
2018-09-23T06:36:52.242Z,22.80
2018-09-23T06:39:24.024Z,26.85
2018-09-23T06:41:56.672Z,26.82
2018-09-23T06:44:30.346Z,32.20
2018-09-23T06:47:02.543Z,26.85
2018-09-23T06:49:33.878Z,27.13
2018-09-23T06:52:05.902Z,29.40
2018-09-23T06:54:37.482Z,29.50
2018-09-23T06:57:09.053Z,23.77
2018-09-23T06:59:40.412Z,27.30
2018-09-23T07:02:12.499Z,27.02
2018-09-23T07:04:44.212Z,22.95
2018-09-23T07:07:16.480Z,26.37
2018-09-23T07:09:47.766Z,31.23
2018-09-23T07:12:19.489Z,29.35
2018-09-23T07:14:50.985Z,27.55
2018-09-23T07:17:22.561Z,36.03
2018-09-23T07:19:53.966Z,29.02
2018-09-23T07:22:26.077Z,22.95
2018-09-23T07:24:57.286Z,24.13
2018-09-23T07:27:29.559Z,32.90
2018-09-23T07:30:00.950Z,31.37
2018-09-23T07:32:32.727Z,29.35
2018-09-23T07:35:05.944Z,36.98
2018-09-23T07:37:37.581Z,28.05
2018-09-23T07:40:09.318Z,26.85
2018-09-23T07:42:41.677Z,29.32
2018-09-23T07:45:13.106Z,36.70
2018-09-23T07:47:44.803Z,25.65
2018-09-23T07:50:16.086Z,26.93
2018-09-23T07:52:47.914Z,23.60
2018-09-23T07:55:19.216Z,34.67
2018-09-23T07:57:50.881Z,28.98
2018-09-23T08:00:22.401Z,26.57
2018-09-23T08:02:53.997Z,33.08
2018-09-23T08:05:25.401Z,27.27
2018-09-23T08:07:58.482Z,31.50
2018-09-23T08:10:30.015Z,40.73
2018-09-23T08:13:03.220Z,25.45
2018-09-23T08:15:34.894Z,40.38
2018-09-23T08:18:06.826Z,27.90
2018-09-23T08:20:38.138Z,33.53
2018-09-23T08:23:10.141Z,35.55
2018-09-23T08:25:41.844Z,31.07
2018-09-23T08:28:13.539Z,30.60
2018-09-23T08:30:44.946Z,29.67
2018-09-23T08:33:16.950Z,33.75
2018-09-23T08:35:48.506Z,38.75
2018-09-23T08:38:20.089Z,35.63
2018-09-23T08:40:53.423Z,30.35
2018-09-23T08:43:25.330Z,29.70
2018-09-23T08:45:56.937Z,42.30
2018-09-23T08:48:28.426Z,29.60
2018-09-23T08:50:59.898Z,42.83
2018-09-23T08:53:31.398Z,42.17
2018-09-23T08:56:03.388Z,32.28
2018-09-23T08:58:35.761Z,31.15
2018-09-23T09:01:07.096Z,31.73
2018-09-23T09:03:38.931Z,43.35
2018-09-23T09:06:10.433Z,36.58
2018-09-23T09:08:42.669Z,42.87
2018-09-23T09:11:13.943Z,34.98
2018-09-23T09:13:45.945Z,35.00
2018-09-23T09:16:17.433Z,41.13
2018-09-23T09:18:49.158Z,29.20
2018-09-23T09:21:20.468Z,31.33
2018-09-23T09:23:52.330Z,33.30
2018-09-23T09:26:23.551Z,46.57
2018-09-23T09:28:55.286Z,30.60
2018-09-23T09:31:26.696Z,43.47
2018-09-23T09:33:58.706Z,31.20
2018-09-23T09:36:30.043Z,41.53
2018-09-23T09:39:01.828Z,34.80
2018-09-23T09:41:33.130Z,40.33
2018-09-23T09:44:04.908Z,34.63
2018-09-23T09:46:36.726Z,41.23
2018-09-23T09:49:09.653Z,36.90
2018-09-23T09:51:40.874Z,43.47
2018-09-23T09:54:12.531Z,37.90
2018-09-23T09:56:43.849Z,39.37
2018-09-23T09:59:15.627Z,44.63
2018-09-23T10:01:46.854Z,37.43
2018-09-23T10:04:18.638Z,50.53
2018-09-23T10:06:50.147Z,33.33
2018-09-23T10:09:23.182Z,37.37
2018-09-23T10:11:54.617Z,42.53
2018-09-23T10:14:26.473Z,42.73
2018-09-23T10:16:57.620Z,45.77
2018-09-23T10:19:29.197Z,34.20
2018-09-23T10:22:00.483Z,39.67
2018-09-23T10:24:32.487Z,32.13
2018-09-23T10:27:03.965Z,38.47
2018-09-23T10:29:35.447Z,32.40
2018-09-23T10:32:06.875Z,38.23
2018-09-23T10:34:39.212Z,28.47
2018-09-23T10:37:10.658Z,39.77
2018-09-23T10:39:42.554Z,36.57
2018-09-23T10:42:14.442Z,36.93
2018-09-23T10:44:46.273Z,34.60
2018-09-23T10:47:17.790Z,29.00
2018-09-23T10:49:49.405Z,41.47
2018-09-23T10:52:20.755Z,31.83
2018-09-23T10:54:52.816Z,44.83
2018-09-23T10:57:24.390Z,38.03
2018-09-23T10:59:56.042Z,34.83
2018-09-23T11:02:27.505Z,33.97
2018-09-23T11:04:58.826Z,36.47
2018-09-23T11:07:30.164Z,36.53
2018-09-23T11:10:02.996Z,31.40
2018-09-23T11:12:34.382Z,34.57
2018-09-23T11:15:06.272Z,35.20
2018-09-23T11:17:37.530Z,35.30
2018-09-23T11:20:09.354Z,33.23
2018-09-23T11:22:40.658Z,35.27
2018-09-23T11:25:11.986Z,31.83
2018-09-23T11:27:43.550Z,36.63
2018-09-23T11:30:15.120Z,37.10
2018-09-23T11:32:46.015Z,36.80
2018-09-23T11:35:17.525Z,34.00
2018-09-23T11:37:48.922Z,34.80
2018-09-23T11:40:20.650Z,23.50
2018-09-23T11:42:52.008Z,39.57
2018-09-23T11:45:23.780Z,72.70
2018-09-23T11:47:55.333Z,35.97
2018-09-23T11:50:27.005Z,35.60
2018-09-23T11:52:58.388Z,36.60
2018-09-23T11:55:29.925Z,27.53
2018-09-23T11:58:03.043Z,25.83
2018-09-23T12:00:34.685Z,34.23
2018-09-23T12:03:07.227Z,28.67
2018-09-23T12:05:39.972Z,38.67
2018-09-23T12:08:12.491Z,30.93
2018-09-23T12:10:44.812Z,33.97
2018-09-23T12:13:16.138Z,34.70
2018-09-23T12:15:47.989Z,41.33
2018-09-23T12:18:19.631Z,32.57
2018-09-23T12:20:51.989Z,34.13
2018-09-23T12:23:23.868Z,33.17
2018-09-23T12:25:56.502Z,42.30
2018-09-23T12:28:28.085Z,40.20
2018-09-23T12:30:59.726Z,34.50
2018-09-23T12:33:30.820Z,33.53
2018-09-23T12:36:03.132Z,35.67
2018-09-23T12:38:35.379Z,35.87
2018-09-23T12:41:08.125Z,30.93
2018-09-23T12:43:39.474Z,37.30
2018-09-23T12:46:11.542Z,36.07
2018-09-23T12:48:43.069Z,27.63
2018-09-23T12:51:15.036Z,36.10
2018-09-23T12:53:46.688Z,34.53
2018-09-23T12:56:18.555Z,32.47
2018-09-23T12:58:50.062Z,26.67
2018-09-23T13:01:23.744Z,27.77
2018-09-23T13:03:57.765Z,30.87
2018-09-23T13:06:29.466Z,35.13
2018-09-23T13:09:00.790Z,39.13
2018-09-23T13:11:33.266Z,26.70
2018-09-23T13:14:05.968Z,27.33
2018-09-23T13:16:37.601Z,27.40
2018-09-23T13:19:08.926Z,27.03
2018-09-23T13:21:40.798Z,36.47
2018-09-23T13:24:12.283Z,37.53
2018-09-23T13:26:43.857Z,25.93
2018-09-23T13:29:15.235Z,35.30
2018-09-23T13:31:46.966Z,31.23
2018-09-23T13:34:18.248Z,24.93
2018-09-23T13:36:49.809Z,34.77
2018-09-23T13:39:21.046Z,32.23
2018-09-23T13:41:52.705Z,32.03
2018-09-23T13:44:24.133Z,33.23
2018-09-23T13:46:55.866Z,31.87
2018-09-23T13:49:27.010Z,32.03
2018-09-23T13:51:59.002Z,31.23
2018-09-23T13:54:30.584Z,25.77
2018-09-23T13:57:02.497Z,29.33
2018-09-23T13:59:33.769Z,28.00
2018-09-23T14:02:05.703Z,37.40
2018-09-23T14:04:36.989Z,36.73
2018-09-23T14:07:08.354Z,32.30
2018-09-23T14:09:39.645Z,32.60
2018-09-23T14:12:14.688Z,29.77
2018-09-23T14:14:46.369Z,40.83
2018-09-23T14:17:18.224Z,36.60
2018-09-23T14:19:49.569Z,30.43
2018-09-23T14:22:21.078Z,30.33
2018-09-23T14:24:52.630Z,29.97
2018-09-23T14:27:24.282Z,25.27
2018-09-23T14:29:55.693Z,31.50
2018-09-23T14:32:27.173Z,21.80
2018-09-23T14:34:59.243Z,23.50
2018-09-23T14:37:31.007Z,28.67
2018-09-23T14:40:02.573Z,25.03
2018-09-23T14:42:34.757Z,28.97
2018-09-23T14:45:09.966Z,33.47
2018-09-23T14:47:42.661Z,29.50
2018-09-23T14:50:14.540Z,32.10
2018-09-23T14:52:46.122Z,39.27
2018-09-23T14:55:18.507Z,27.90
2018-09-23T14:57:50.477Z,30.67
2018-09-23T15:00:22.146Z,28.20
2018-09-23T15:02:55.142Z,29.43
2018-09-23T15:05:27.421Z,26.70
2018-09-23T15:07:59.255Z,31.27
2018-09-23T15:10:31.338Z,25.17
2018-09-23T15:13:08.054Z,27.77
2018-09-23T15:15:40.034Z,30.60
2018-09-23T15:18:11.729Z,30.97
2018-09-23T15:20:43.299Z,26.17
2018-09-23T15:23:15.027Z,37.70
2018-09-23T15:25:46.414Z,37.17
2018-09-23T15:28:17.805Z,26.47
2018-09-23T15:30:49.229Z,41.00
2018-09-23T15:33:20.911Z,30.77
2018-09-23T15:35:52.338Z,31.53
2018-09-23T15:38:24.229Z,26.63
2018-09-23T15:40:55.477Z,23.10
2018-09-23T15:43:27.548Z,25.20
2018-09-23T15:45:59.066Z,31.80
2018-09-23T15:48:30.581Z,31.10
2018-09-23T15:51:04.510Z,27.70
2018-09-23T15:53:36.209Z,33.00
2018-09-23T15:56:08.450Z,27.60
2018-09-23T15:58:40.173Z,35.47
2018-09-23T16:01:11.433Z,35.23
2018-09-23T16:03:43.307Z,29.73
2018-09-23T16:06:14.581Z,30.07
2018-09-23T16:08:46.830Z,30.93
2018-09-23T16:11:18.434Z,26.20
2018-09-23T16:13:52.210Z,30.20
2018-09-23T16:16:23.698Z,28.70
2018-09-23T16:18:55.171Z,38.77
2018-09-23T16:21:26.653Z,26.70
2018-09-23T16:23:58.402Z,28.93
2018-09-23T16:26:30.181Z,29.13
2018-09-23T16:29:02.261Z,35.77
2018-09-23T16:31:33.585Z,31.53
2018-09-23T16:34:05.277Z,44.77
2018-09-23T16:36:36.624Z,33.43
2018-09-23T16:39:10.062Z,36.33
2018-09-23T16:41:41.361Z,28.73
2018-09-23T16:44:13.214Z,37.40
2018-09-23T16:46:44.356Z,23.83
2018-09-23T16:49:15.906Z,31.10
2018-09-23T16:51:47.458Z,32.03
2018-09-23T16:54:19.176Z,31.40
2018-09-23T16:56:50.701Z,31.50
2018-09-23T16:59:22.324Z,25.03
2018-09-23T17:01:53.678Z,20.17
2018-09-23T17:04:25.518Z,26.37
2018-09-23T17:06:56.996Z,27.63
2018-09-23T17:09:28.597Z,26.17
2018-09-23T17:12:00.071Z,30.00
2018-09-23T17:14:32.982Z,25.50
2018-09-23T17:17:05.153Z,34.33
2018-09-23T17:19:36.918Z,33.83
2018-09-23T17:22:08.876Z,30.33
2018-09-23T17:24:41.361Z,36.60
2018-09-23T17:27:14.517Z,26.80
2018-09-23T17:29:47.674Z,27.23
2018-09-23T17:32:18.880Z,25.70
2018-09-23T17:34:51.896Z,27.47
2018-09-23T17:37:25.018Z,31.27
2018-09-23T17:39:56.648Z,35.57
2018-09-23T17:42:29.646Z,37.80
2018-09-23T17:45:02.827Z,31.27
2018-09-23T17:47:34.094Z,33.37
2018-09-23T17:50:05.829Z,27.77
2018-09-23T17:52:37.245Z,39.13
2018-09-23T17:55:09.224Z,32.17
2018-09-23T17:57:40.788Z,33.23
2018-09-23T18:00:12.993Z,32.83
2018-09-23T18:02:44.585Z,32.40
2018-09-23T18:05:17.149Z,32.07
2018-09-23T18:07:48.344Z,33.30
2018-09-23T18:10:20.114Z,38.57
2018-09-23T18:12:51.693Z,37.00
2018-09-23T18:15:25.142Z,32.53
2018-09-23T18:18:06.265Z,39.53
2018-09-23T18:20:38.305Z,35.67
2018-09-23T18:23:09.652Z,27.83
2018-09-23T18:25:41.506Z,38.00
2018-09-23T18:28:12.848Z,22.17
2018-09-23T18:30:44.814Z,33.83
2018-09-23T18:33:16.434Z,30.53
2018-09-23T18:35:48.206Z,38.17
2018-09-23T18:38:20.103Z,22.63
2018-09-23T18:40:52.059Z,32.50
2018-09-23T18:43:23.645Z,26.70
2018-09-23T18:45:56.702Z,33.00
2018-09-23T18:48:28.242Z,23.10
2018-09-23T18:50:59.777Z,31.53
2018-09-23T18:53:31.168Z,38.70
2018-09-23T18:56:02.769Z,30.00
2018-09-23T18:58:34.253Z,32.63
2018-09-23T19:01:06.201Z,31.30
2018-09-23T19:03:37.706Z,31.30
2018-09-23T19:06:11.280Z,45.07
2018-09-23T19:08:42.841Z,41.80
2018-09-23T19:11:14.522Z,29.47
2018-09-23T19:13:50.681Z,38.63
2018-09-23T19:16:27.854Z,39.90
2018-09-23T19:18:59.486Z,33.93
2018-09-23T19:21:32.295Z,36.67
2018-09-23T19:24:03.746Z,28.23
2018-09-23T19:26:35.414Z,27.37
2018-09-23T19:29:07.265Z,31.77
2018-09-23T19:31:39.366Z,27.60
2018-09-23T19:34:10.593Z,33.13
2018-09-23T19:36:42.333Z,35.83
2018-09-23T19:39:13.919Z,43.03
2018-09-23T19:41:45.278Z,30.70
2018-09-23T19:44:16.673Z,23.00
2018-09-23T19:46:48.794Z,32.53
2018-09-23T19:49:20.032Z,38.40
2018-09-23T19:51:53.009Z,34.50
2018-09-23T19:54:25.029Z,31.37
2018-09-23T19:56:57.891Z,29.90
2018-09-23T19:59:29.261Z,29.20
2018-09-23T20:02:00.954Z,33.40
2018-09-23T20:04:32.386Z,33.03
2018-09-23T20:07:03.964Z,32.17
2018-09-23T20:09:35.493Z,40.17
2018-09-23T20:12:07.314Z,33.27
2018-09-23T20:14:38.618Z,31.20
2018-09-23T20:17:10.978Z,30.50
2018-09-23T20:19:42.901Z,35.47
2018-09-23T20:22:15.610Z,25.90
2018-09-23T20:24:47.415Z,34.80
2018-09-23T20:27:18.817Z,40.57
2018-09-23T20:29:50.285Z,25.00
2018-09-23T20:32:22.139Z,33.53
2018-09-23T20:34:53.341Z,27.50
2018-09-23T20:37:25.090Z,37.30
2018-09-23T20:39:56.710Z,29.23
2018-09-23T20:42:28.802Z,28.10
2018-09-23T20:45:00.129Z,31.57
2018-09-23T20:47:32.161Z,42.67
2018-09-23T20:50:05.313Z,35.53
2018-09-23T20:52:36.974Z,28.43
2018-09-23T20:55:08.325Z,32.57
2018-09-23T20:57:40.822Z,34.03
2018-09-23T21:00:12.242Z,39.87
2018-09-23T21:02:43.858Z,29.40
2018-09-23T21:05:15.182Z,34.07
2018-09-23T21:07:47.164Z,24.20
2018-09-23T21:10:18.541Z,37.10
2018-09-23T21:12:50.246Z,33.20
2018-09-23T21:15:21.637Z,36.57
2018-09-23T21:17:54.490Z,39.53
2018-09-23T21:20:25.901Z,39.77
2018-09-23T21:22:57.671Z,33.67
2018-09-23T21:25:29.090Z,24.57
2018-09-23T21:28:00.847Z,40.13
2018-09-23T21:30:31.977Z,33.77
2018-09-23T21:33:06.066Z,33.80
2018-09-23T21:35:37.314Z,33.67
2018-09-23T21:38:09.074Z,25.13
2018-09-23T21:40:40.668Z,41.43
2018-09-23T21:43:12.106Z,39.67
2018-09-23T21:45:43.618Z,41.50
2018-09-23T21:48:15.090Z,47.93
2018-09-23T21:50:46.484Z,42.47
2018-09-23T21:53:18.220Z,55.40
2018-09-23T21:55:49.524Z,47.30
2018-09-23T21:58:21.442Z,38.17
2018-09-23T22:00:52.901Z,41.07
2018-09-23T22:03:24.473Z,45.50
2018-09-23T22:05:55.918Z,36.70
2018-09-23T22:08:27.497Z,39.33
2018-09-23T22:10:58.816Z,42.70
2018-09-23T22:13:30.681Z,41.67
2018-09-23T22:16:02.245Z,38.00
2018-09-23T22:18:37.945Z,33.13
2018-09-23T22:21:09.077Z,49.23
2018-09-23T22:23:40.876Z,38.67
2018-09-23T22:26:12.363Z,55.70
2018-09-23T22:28:44.062Z,51.87
2018-09-23T22:31:15.473Z,35.63
2018-09-23T22:33:46.885Z,44.83
2018-09-23T22:36:18.214Z,50.30
2018-09-23T22:38:49.790Z,49.37
2018-09-23T22:41:21.061Z,46.73
2018-09-23T22:43:52.933Z,42.07
2018-09-23T22:46:24.181Z,43.07
2018-09-23T22:48:56.266Z,54.70
2018-09-23T22:51:27.685Z,39.77
2018-09-23T22:53:59.158Z,34.07
2018-09-23T22:56:30.685Z,49.43
2018-09-23T22:59:02.569Z,45.53
2018-09-23T23:01:33.947Z,41.30
2018-09-23T23:04:06.742Z,49.13
2018-09-23T23:06:38.033Z,53.23
2018-09-23T23:09:11.420Z,49.03
2018-09-23T23:11:43.010Z,48.27
2018-09-23T23:14:15.105Z,53.53
2018-09-23T23:16:46.420Z,46.07
2018-09-23T23:19:18.704Z,42.03
2018-09-23T23:21:50.226Z,39.53
2018-09-23T23:24:21.825Z,48.40
2018-09-23T23:26:53.233Z,42.30
2018-09-23T23:29:25.346Z,49.67
2018-09-23T23:31:56.778Z,56.63
2018-09-23T23:34:28.368Z,47.70
2018-09-23T23:36:59.857Z,48.07
2018-09-23T23:39:31.269Z,44.43
2018-09-23T23:42:02.494Z,51.57
2018-09-23T23:44:33.929Z,44.40
2018-09-23T23:47:05.386Z,44.97
2018-09-23T23:49:37.326Z,51.57
2018-09-23T23:52:08.781Z,52.73
2018-09-23T23:54:41.145Z,60.90
2018-09-23T23:57:12.419Z,57.70
2018-09-23T23:59:44.323Z,52.77
